Time;durP1;ratioP1;P1;durP2;ratioP2;P2;SDS_P1;SDS_P2;PMS_P1;PMS_P2;Temp;Humidity;BMP_temperature;BMP_pressure;BME280_temperature;BME280_humidity;BME280_pressure;Samples;Min_cycle;Max_cycle;Signal;HPM_P1;HPM_P2
2023/04/08 00:02:12;;;;;;;5.70;4.72;;;18.80;48.80;;;;;;5017454;28;20215;-79
2023/04/08 00:04:41;;;;;;;6.25;4.93;;;18.80;48.90;;;;;;5015683;28;20251;-79
2023/04/08 00:07:08;;;;;;;6.15;4.68;;;18.80;48.80;;;;;;5015566;28;20213;-79
2023/04/08 00:09:35;;;;;;;6.07;4.95;;;18.80;48.90;;;;;;5015107;28;20217;-79
2023/04/08 00:12:02;;;;;;;6.05;5.40;;;18.80;48.80;;;;;;5016889;28;20193;-78
2023/04/08 00:14:29;;;;;;;6.18;5.03;;;18.80;48.80;;;;;;5015323;28;20201;-79
2023/04/08 00:16:56;;;;;;;6.35;4.95;;;18.80;48.80;;;;;;5015849;28;20211;-79
2023/04/08 00:19:24;;;;;;;4.82;4.43;;;18.80;48.80;;;;;;5015175;28;20196;-79
2023/04/08 00:21:53;;;;;;;6.47;5.15;;;18.70;48.70;;;;;;5014780;28;20204;-79
2023/04/08 00:24:20;;;;;;;6.20;5.47;;;18.70;48.80;;;;;;5014924;28;20204;-78
2023/04/08 00:26:47;;;;;;;5.00;4.50;;;18.70;48.80;;;;;;5014768;28;20232;-79
2023/04/08 00:29:14;;;;;;;7.00;5.28;;;18.70;48.80;;;;;;5014878;28;20212;-78
2023/04/08 00:31:42;;;;;;;5.63;4.97;;;18.70;48.80;;;;;;5014645;28;20197;-78
2023/04/08 00:34:09;;;;;;;4.93;4.30;;;18.70;48.80;;;;;;5014634;28;20279;-78
2023/04/08 00:36:36;;;;;;;5.65;4.93;;;18.70;48.80;;;;;;5015038;28;20224;-78
2023/04/08 00:39:05;;;;;;;5.65;4.85;;;18.70;48.80;;;;;;5016454;28;20259;-79
2023/04/08 00:41:33;;;;;;;6.13;4.72;;;18.70;48.80;;;;;;5015655;28;20197;-79
2023/04/08 00:44:00;;;;;;;7.22;5.10;;;18.60;48.70;;;;;;5015636;28;20216;-79
2023/04/08 00:46:27;;;;;;;6.18;5.10;;;18.70;48.80;;;;;;5015555;28;20204;-79
2023/04/08 00:48:55;;;;;;;6.68;5.10;;;18.60;48.70;;;;;;5015032;28;20211;-78
2023/04/08 00:51:22;;;;;;;5.72;4.68;;;18.60;48.70;;;;;;5015101;28;20663;-78
2023/04/08 00:53:49;;;;;;;5.70;5.10;;;18.60;48.80;;;;;;5015283;28;20283;-78
2023/04/08 00:56:17;;;;;;;5.18;4.68;;;18.60;48.70;;;;;;5015292;28;20200;-78
2023/04/08 00:58:45;;;;;;;4.78;4.38;;;18.60;48.70;;;;;;5014405;28;20209;-78
2023/04/08 01:01:14;;;;;;;7.15;5.07;;;18.60;48.70;;;;;;5014943;28;20663;-78
2023/04/08 01:03:45;;;;;;;5.20;4.40;;;18.60;48.70;;;;;;5015320;28;20228;-78
2023/04/08 01:06:16;;;;;;;5.68;4.82;;;18.50;48.70;;;;;;5033313;22;20202;-76
2023/04/08 01:08:43;;;;;;;5.00;4.50;;;18.50;48.70;;;;;;5014182;28;20300;-77
2023/04/08 01:11:12;;;;;;;5.85;4.90;;;18.50;48.80;;;;;;5014859;28;20221;-77
2023/04/08 01:13:42;;;;;;;6.95;4.60;;;18.50;48.70;;;;;;5015449;28;20220;-77
2023/04/08 01:16:10;;;;;;;5.75;4.75;;;18.50;48.80;;;;;;5014692;28;20218;-77
2023/04/08 01:18:37;;;;;;;5.00;4.50;;;18.50;48.80;;;;;;5015202;28;20667;-77
2023/04/08 01:21:04;;;;;;;6.05;4.70;;;18.50;48.70;;;;;;5015042;28;20196;-77
2023/04/08 01:23:37;;;;;;;5.28;4.25;;;18.50;48.70;;;;;;4998909;28;20216;-77
2023/04/08 01:26:06;;;;;;;4.70;4.28;;;18.50;48.70;;;;;;5014827;28;20192;-77
2023/04/08 01:28:33;;;;;;;5.13;4.22;;;18.50;48.70;;;;;;5015027;28;20227;-77
2023/04/08 01:31:01;;;;;;;5.10;4.43;;;18.40;48.70;;;;;;5014664;28;20367;-77
2023/04/08 01:33:28;;;;;;;5.60;4.45;;;18.50;48.70;;;;;;5014931;28;20212;-77
2023/04/08 01:35:56;;;;;;;5.25;4.00;;;18.50;48.70;;;;;;5016434;28;20218;-77
2023/04/08 01:38:24;;;;;;;5.30;4.75;;;18.40;48.70;;;;;;5015730;28;20251;-77
2023/04/08 01:40:52;;;;;;;4.43;4.00;;;18.50;48.70;;;;;;5014579;28;20201;-77
2023/04/08 01:43:20;;;;;;;5.30;4.65;;;18.50;48.60;;;;;;5014566;28;20220;-77
2023/04/08 01:45:48;;;;;;;4.78;4.00;;;18.50;48.70;;;;;;4998023;28;20203;-77
2023/04/08 01:48:15;;;;;;;5.03;4.18;;;18.40;48.60;;;;;;5014948;28;20197;-77
2023/04/08 01:50:43;;;;;;;4.65;4.25;;;18.40;48.60;;;;;;5014086;28;20227;-77
2023/04/08 01:53:10;;;;;;;4.40;4.00;;;18.40;48.60;;;;;;5016026;28;20224;-77
2023/04/08 01:55:38;;;;;;;4.82;4.10;;;18.40;48.60;;;;;;5014717;28;20223;-77
2023/04/08 01:58:06;;;;;;;4.43;4.03;;;18.40;48.60;;;;;;5014383;28;20228;-77
2023/04/08 02:00:34;;;;;;;4.45;3.85;;;18.40;48.60;;;;;;5013863;28;20249;-77
2023/04/08 02:03:02;;;;;;;4.88;4.13;;;18.40;48.50;;;;;;5013435;28;20220;-77
2023/04/08 02:05:29;;;;;;;4.68;3.90;;;18.40;48.60;;;;;;5013776;28;20199;-77
2023/04/08 02:07:56;;;;;;;4.38;3.92;;;18.40;48.50;;;;;;5013562;28;20215;-77
2023/04/08 02:10:23;;;;;;;4.00;3.60;;;18.40;48.50;;;;;;5013488;28;20213;-77
2023/04/08 02:12:51;;;;;;;4.82;4.15;;;18.40;48.50;;;;;;4997571;28;20219;-77
2023/04/08 02:15:18;;;;;;;4.55;3.95;;;18.30;48.40;;;;;;5013584;28;20200;-77
2023/04/08 02:17:49;;;;;;;4.05;3.72;;;18.40;48.40;;;;;;5013479;28;20196;-77
2023/04/08 02:20:17;;;;;;;4.57;4.10;;;18.30;48.40;;;;;;5013523;28;20188;-77
2023/04/08 02:22:48;;;;;;;4.90;4.40;;;18.30;48.50;;;;;;5014890;28;20247;-77
2023/04/08 02:25:17;;;;;;;4.03;3.63;;;18.30;48.30;;;;;;5013397;28;20221;-77
2023/04/08 02:27:44;;;;;;;5.50;4.22;;;18.30;48.50;;;;;;5013303;28;20208;-77
2023/04/08 02:30:12;;;;;;;4.63;4.22;;;18.30;48.40;;;;;;5013187;28;20212;-77
2023/04/08 02:32:39;;;;;;;4.95;4.45;;;18.30;48.30;;;;;;5013194;28;20252;-77
2023/04/08 02:35:08;;;;;;;4.97;4.25;;;18.30;48.40;;;;;;5013290;28;20211;-77
2023/04/08 02:37:35;;;;;;;4.78;4.30;;;18.30;48.30;;;;;;5013211;28;20200;-77
2023/04/08 02:40:02;;;;;;;5.35;4.22;;;18.30;48.40;;;;;;5013341;28;20640;-77
2023/04/08 02:42:29;;;;;;;4.45;4.05;;;18.30;48.40;;;;;;4981092;28;20655;-77
2023/04/08 02:44:57;;;;;;;4.60;4.18;;;18.30;48.40;;;;;;5013731;28;20572;-77
2023/04/08 02:47:25;;;;;;;5.35;4.53;;;18.30;48.50;;;;;;5019742;28;20201;-77
2023/04/08 02:49:53;;;;;;;4.95;4.20;;;18.20;48.30;;;;;;5014502;28;20295;-77
2023/04/08 02:52:22;;;;;;;5.03;4.50;;;18.20;48.40;;;;;;5013334;28;20213;-77
2023/04/08 02:54:49;;;;;;;4.45;4.05;;;18.30;48.50;;;;;;5013374;28;20192;-77
2023/04/08 02:57:17;;;;;;;5.40;4.20;;;18.20;48.40;;;;;;5014639;28;20220;-77
2023/04/08 02:59:44;;;;;;;5.00;4.50;;;18.20;48.40;;;;;;5013369;28;20192;-77
2023/04/08 03:02:11;;;;;;;4.70;4.20;;;18.20;48.40;;;;;;5013092;28;20586;-77
2023/04/08 03:04:38;;;;;;;4.30;3.88;;;18.20;48.50;;;;;;5014184;28;20201;-77
2023/04/08 03:07:05;;;;;;;4.38;3.92;;;18.20;48.50;;;;;;5013228;28;20209;-77
2023/04/08 03:09:34;;;;;;;4.60;4.20;;;18.20;48.50;;;;;;5013026;28;20205;-77
2023/04/08 03:12:01;;;;;;;4.75;4.18;;;18.20;48.30;;;;;;5012735;28;20325;-77
2023/04/08 03:14:28;;;;;;;4.40;3.83;;;18.20;48.30;;;;;;5013075;28;20231;-77
2023/04/08 03:16:56;;;;;;;5.28;4.22;;;18.20;48.40;;;;;;5012479;28;20208;-77
2023/04/08 03:19:22;;;;;;;4.63;4.22;;;18.20;48.40;;;;;;5015343;28;20264;-77
2023/04/08 03:21:50;;;;;;;4.90;3.83;;;18.20;48.30;;;;;;5016493;28;20246;-77
2023/04/08 03:24:17;;;;;;;4.55;4.03;;;18.20;48.40;;;;;;5016633;28;20216;-77
2023/04/08 03:26:45;;;;;;;5.60;4.50;;;18.20;48.30;;;;;;5016395;28;20197;-77
2023/04/08 03:29:13;;;;;;;5.20;4.70;;;18.20;48.30;;;;;;5016448;28;20231;-77
2023/04/08 03:31:40;;;;;;;5.22;4.13;;;18.20;48.30;;;;;;5017734;28;20623;-77
2023/04/08 03:34:07;;;;;;;4.22;3.80;;;18.20;48.30;;;;;;5017391;28;20212;-77
2023/04/08 03:36:35;;;;;;;4.05;3.65;;;18.20;48.80;;;;;;5016176;28;20283;-77
2023/04/08 03:39:02;;;;;;;4.13;3.70;;;18.20;48.80;;;;;;5016272;28;20639;-77
2023/04/08 03:41:30;;;;;;;4.55;3.58;;;18.30;48.70;;;;;;5016401;28;20202;-77
2023/04/08 03:43:58;;;;;;;4.18;3.72;;;18.30;48.50;;;;;;5000084;28;20649;-77
2023/04/08 03:46:25;;;;;;;3.90;3.60;;;18.40;48.40;;;;;;5016400;28;20295;-77
2023/04/08 03:48:53;;;;;;;4.15;3.75;;;18.40;48.30;;;;;;5017759;28;20201;-77
2023/04/08 03:51:20;;;;;;;4.20;3.20;;;18.40;48.10;;;;;;5016312;28;20290;-77
2023/04/08 03:53:48;;;;;;;3.70;3.40;;;18.40;48.10;;;;;;5015975;28;20213;-77
2023/04/08 03:56:15;;;;;;;3.22;2.92;;;18.40;48.00;;;;;;5016361;28;20208;-77
2023/04/08 03:58:42;;;;;;;3.75;3.35;;;18.40;47.90;;;;;;5016796;28;20197;-77
2023/04/08 04:01:11;;;;;;;4.70;3.58;;;18.50;48.00;;;;;;5016673;28;20201;-76
2023/04/08 04:03:38;;;;;;;4.05;3.33;;;18.40;47.90;;;;;;5016596;28;20224;-77
2023/04/08 04:06:05;;;;;;;4.90;4.40;;;18.40;47.90;;;;;;5018498;28;20193;-77
2023/04/08 04:08:32;;;;;;;4.47;4.00;;;18.40;47.90;;;;;;5016747;28;20537;-77
2023/04/08 04:10:59;;;;;;;4.45;3.97;;;18.40;48.00;;;;;;5015994;28;20212;-77
2023/04/08 04:13:26;;;;;;;4.75;4.22;;;18.40;47.90;;;;;;5016092;28;20220;-77
2023/04/08 04:15:54;;;;;;;4.65;3.95;;;18.40;47.80;;;;;;5017048;28;20208;-77
2023/04/08 04:18:22;;;;;;;3.78;3.42;;;18.40;47.70;;;;;;4999516;28;20258;-77
2023/04/08 04:20:49;;;;;;;3.95;3.55;;;18.40;47.80;;;;;;5016802;28;20189;-77
2023/04/08 04:23:16;;;;;;;3.60;3.30;;;18.40;48.30;;;;;;5015398;28;20225;-77
2023/04/08 04:25:43;;;;;;;3.58;3.22;;;18.40;47.70;;;;;;5016746;28;20193;-77
2023/04/08 04:28:11;;;;;;;3.92;3.15;;;18.40;47.60;;;;;;5015345;28;20246;-77
2023/04/08 04:30:38;;;;;;;3.30;3.00;;;18.40;47.60;;;;;;5015778;28;20223;-77
2023/04/08 04:33:05;;;;;;;4.18;3.78;;;18.40;47.50;;;;;;5015501;28;20227;-77
2023/04/08 04:35:34;;;;;;;3.92;3.53;;;18.40;47.60;;;;;;5015462;28;20219;-77
2023/04/08 04:38:02;;;;;;;4.28;3.88;;;18.40;47.60;;;;;;5015730;28;20207;-77
2023/04/08 04:40:29;;;;;;;4.97;4.30;;;18.40;47.50;;;;;;5016644;28;20195;-77
2023/04/08 04:42:57;;;;;;;4.95;4.30;;;18.40;47.70;;;;;;5016418;28;20591;-77
2023/04/08 04:45:24;;;;;;;4.78;4.28;;;18.40;47.70;;;;;;5015448;28;20201;-77
2023/04/08 04:47:52;;;;;;;4.75;4.28;;;18.30;47.60;;;;;;4999219;28;20208;-77
2023/04/08 04:50:19;;;;;;;6.03;4.28;;;18.30;47.60;;;;;;5015416;28;20232;-77
2023/04/08 04:52:47;;;;;;;6.10;4.40;;;18.30;47.50;;;;;;5015842;28;20212;-77
2023/04/08 04:55:15;;;;;;;4.68;4.20;;;18.30;47.70;;;;;;5015178;28;20205;-77
2023/04/08 04:57:43;;;;;;;4.32;3.92;;;18.30;47.60;;;;;;4999684;28;20543;-77
2023/04/08 05:00:11;;;;;;;5.05;3.97;;;18.30;47.60;;;;;;5016443;28;20200;-77
2023/04/08 05:02:38;;;;;;;3.88;3.53;;;18.30;47.70;;;;;;5015226;28;20311;-77
2023/04/08 05:05:06;;;;;;;3.65;3.35;;;18.30;47.50;;;;;;5015699;28;20234;-77
2023/04/08 05:07:36;;;;;;;4.22;3.00;;;18.30;47.50;;;;;;5016186;28;20204;-77
2023/04/08 05:10:06;;;;;;;3.90;3.20;;;18.30;47.50;;;;;;5014909;28;20193;-77
2023/04/08 05:12:33;;;;;;;3.42;2.92;;;18.40;47.70;;;;;;5015122;28;20359;-77
2023/04/08 05:15:01;;;;;;;4.05;3.25;;;18.30;47.50;;;;;;5015122;28;20201;-77
2023/04/08 05:17:28;;;;;;;3.95;3.10;;;18.40;47.60;;;;;;5016159;28;20217;-77
2023/04/08 05:19:55;;;;;;;3.50;3.10;;;18.40;47.50;;;;;;5015626;28;20219;-77
2023/04/08 05:22:23;;;;;;;3.58;3.28;;;18.40;47.50;;;;;;5015639;28;20221;-77
2023/04/08 05:24:50;;;;;;;3.40;3.10;;;18.30;47.40;;;;;;5009308;28;20215;-77
2023/04/08 05:27:20;;;;;;;3.30;3.00;;;18.30;47.50;;;;;;5038131;28;20200;-77
2023/04/08 05:29:47;;;;;;;4.00;3.38;;;18.40;47.50;;;;;;5038561;28;20173;-77
2023/04/08 05:32:15;;;;;;;4.10;3.15;;;18.40;47.50;;;;;;5038350;28;20216;-77
2023/04/08 05:34:42;;;;;;;3.60;3.30;;;18.40;47.50;;;;;;5038326;28;20181;-77
2023/04/08 05:37:10;;;;;;;3.90;3.42;;;18.40;47.50;;;;;;5038104;28;20227;-77
2023/04/08 05:39:37;;;;;;;4.25;3.50;;;18.40;47.50;;;;;;5035552;28;20200;-77
2023/04/08 05:42:04;;;;;;;4.00;3.15;;;18.40;47.50;;;;;;5021390;28;20248;-77
2023/04/08 05:44:33;;;;;;;3.47;3.17;;;18.40;47.60;;;;;;4999309;28;20208;-77
2023/04/08 05:47:01;;;;;;;3.85;3.45;;;18.40;47.50;;;;;;5016726;28;20189;-77
2023/04/08 05:49:28;;;;;;;3.80;3.40;;;18.40;47.50;;;;;;5015460;28;20223;-77
2023/04/08 05:51:55;;;;;;;5.35;4.38;;;18.40;47.70;;;;;;5015418;28;20225;-77
2023/04/08 05:54:22;;;;;;;4.22;3.83;;;18.40;47.40;;;;;;5015637;28;20192;-77
2023/04/08 05:56:50;;;;;;;4.32;3.92;;;18.40;47.40;;;;;;5016060;28;20208;-77
2023/04/08 05:59:17;;;;;;;5.03;4.53;;;18.40;47.50;;;;;;4999519;28;20647;-77
2023/04/08 06:01:45;;;;;;;5.32;4.82;;;18.40;47.50;;;;;;5014775;28;20197;-77
2023/04/08 06:04:13;;;;;;;4.75;4.30;;;18.40;47.50;;;;;;5016251;28;20204;-77
2023/04/08 06:06:40;;;;;;;5.70;4.40;;;18.40;47.40;;;;;;5015751;28;20197;-77
2023/04/08 06:09:08;;;;;;;4.40;4.00;;;18.40;48.00;;;;;;5014458;28;20200;-76
2023/04/08 06:11:36;;;;;;;5.07;4.30;;;18.50;47.40;;;;;;5015360;28;20222;-76
2023/04/08 06:14:03;;;;;;;5.13;4.63;;;18.60;47.30;;;;;;5014660;28;20588;-76
2023/04/08 06:16:30;;;;;;;3.90;3.60;;;18.60;47.10;;;;;;5015486;28;20195;-76
2023/04/08 06:18:59;;;;;;;4.50;4.10;;;18.70;47.00;;;;;;5014795;28;20205;-78
2023/04/08 06:21:26;;;;;;;4.32;3.85;;;18.70;46.80;;;;;;5015977;28;20702;-78
2023/04/08 06:23:54;;;;;;;4.00;3.70;;;18.80;46.80;;;;;;5016019;28;20247;-78
2023/04/08 06:26:21;;;;;;;5.10;4.50;;;18.90;46.80;;;;;;5015278;28;20588;-78
2023/04/08 06:28:48;;;;;;;4.30;3.90;;;18.90;46.70;;;;;;5015575;28;20675;-78
2023/04/08 06:31:16;;;;;;;5.07;4.57;;;18.90;46.70;;;;;;5017010;28;20563;-78
2023/04/08 06:33:42;;;;;;;4.55;3.78;;;18.90;46.60;;;;;;5015799;28;20220;-79
2023/04/08 06:36:12;;;;;;;4.53;4.10;;;18.90;46.50;;;;;;5015355;28;20200;-79
2023/04/08 06:38:39;;;;;;;4.32;3.92;;;18.90;46.50;;;;;;5016180;28;20291;-79
2023/04/08 06:41:06;;;;;;;4.38;3.95;;;18.90;46.50;;;;;;5016029;28;20236;-79
2023/04/08 06:43:33;;;;;;;4.25;3.85;;;19.00;46.60;;;;;;5017161;28;20223;-79
2023/04/08 06:46:00;;;;;;;4.05;3.75;;;19.00;46.40;;;;;;5015663;28;20208;-79
2023/04/08 06:48:29;;;;;;;4.95;4.35;;;19.00;46.40;;;;;;5015825;28;20212;-79
2023/04/08 06:50:56;;;;;;;4.13;3.72;;;18.90;46.20;;;;;;5015908;28;20587;-79
2023/04/08 06:53:25;;;;;;;4.07;3.75;;;19.00;46.40;;;;;;5018751;28;20213;-79
2023/04/08 06:55:52;;;;;;;4.35;3.95;;;19.00;46.30;;;;;;5020545;28;20200;-79
2023/04/08 06:58:19;;;;;;;4.57;4.15;;;19.00;46.20;;;;;;5020683;28;20192;-79
2023/04/08 07:00:46;;;;;;;4.40;4.00;;;19.10;46.20;;;;;;5020916;28;20219;-79
2023/04/08 07:03:14;;;;;;;4.53;4.13;;;19.10;46.20;;;;;;5019553;28;20220;-79
2023/04/08 07:05:42;;;;;;;4.72;4.22;;;19.10;46.10;;;;;;5003728;28;20199;-79
2023/04/08 07:08:10;;;;;;;4.25;3.85;;;19.10;46.20;;;;;;5080111;23;20259;-79
2023/04/08 07:10:39;;;;;;;4.45;4.05;;;19.00;46.20;;;;;;5017961;28;20205;-79
2023/04/08 07:13:05;;;;;;;3.90;3.60;;;19.00;46.30;;;;;;5017479;28;20235;-79
2023/04/08 07:15:33;;;;;;;4.30;3.90;;;19.00;46.50;;;;;;5017351;28;20200;-78
2023/04/08 07:18:00;;;;;;;3.90;3.60;;;19.10;46.30;;;;;;5001091;28;20201;-78
2023/04/08 07:20:27;;;;;;;3.85;3.55;;;19.10;46.20;;;;;;5016712;28;20622;-79
2023/04/08 07:22:54;;;;;;;4.53;3.33;;;19.10;46.20;;;;;;5016192;28;20213;-78
2023/04/08 07:25:22;;;;;;;4.38;3.50;;;19.20;46.10;;;;;;5016326;28;20295;-78
2023/04/08 07:27:51;;;;;;;4.28;3.88;;;19.10;46.00;;;;;;5016477;28;20189;-78
2023/04/08 07:30:19;;;;;;;3.90;3.60;;;19.20;45.90;;;;;;5016028;28;20200;-78
2023/04/08 07:32:46;;;;;;;3.80;3.42;;;19.20;45.90;;;;;;5017215;28;20216;-77
2023/04/08 07:35:13;;;;;;;3.45;3.15;;;19.20;46.00;;;;;;5016637;28;20189;-78
2023/04/08 07:37:41;;;;;;;3.40;3.10;;;19.30;46.00;;;;;;5016137;28;20205;-78
2023/04/08 07:40:09;;;;;;;3.42;3.13;;;19.30;45.90;;;;;;5016145;28;20611;-77
2023/04/08 07:42:36;;;;;;;4.90;3.67;;;19.40;45.90;;;;;;5015953;28;20244;-78
2023/04/08 07:45:05;;;;;;;4.40;4.00;;;19.40;45.50;;;;;;5016640;28;20540;-78
2023/04/08 07:47:32;;;;;;;5.03;4.20;;;19.30;45.70;;;;;;5015765;28;20204;-78
2023/04/08 07:49:59;;;;;;;4.28;2.60;;;19.30;45.80;;;;;;5015780;28;20201;-78
2023/04/08 07:52:26;;;;;;;4.53;3.95;;;19.30;45.90;;;;;;5015547;28;20224;-78
2023/04/08 07:54:53;;;;;;;5.45;4.30;;;19.40;45.60;;;;;;5016538;28;20254;-78
2023/04/08 07:57:20;;;;;;;7.15;4.88;;;19.40;45.40;;;;;;5015833;28;20236;-78
2023/04/08 07:59:47;;;;;;;5.35;4.30;;;19.40;45.30;;;;;;5015567;28;20545;-77
2023/04/08 08:02:16;;;;;;;5.68;4.82;;;19.40;45.50;;;;;;5015499;28;20220;-78
2023/04/08 08:04:43;;;;;;;5.05;4.38;;;19.40;45.50;;;;;;5015791;28;20201;-78
2023/04/08 08:07:11;;;;;;;4.60;4.20;;;19.50;45.60;;;;;;5000327;28;20303;-79
2023/04/08 08:09:38;;;;;;;4.22;3.83;;;19.50;45.70;;;;;;5015705;28;20201;-77
2023/04/08 08:12:05;;;;;;;5.03;3.90;;;19.50;45.90;;;;;;5016196;28;20315;-77
2023/04/08 08:14:32;;;;;;;6.93;4.50;;;19.50;46.10;;;;;;5015642;28;20204;-77
2023/04/08 08:17:00;;;;;;;5.93;4.55;;;19.50;45.90;;;;;;5016031;28;20201;-77
2023/04/08 08:19:28;;;;;;;7.43;4.20;;;19.50;46.10;;;;;;5016233;28;20562;-77
2023/04/08 08:21:55;;;;;;;6.05;3.55;;;19.60;45.80;;;;;;5016130;28;20206;-77
2023/04/08 08:24:23;;;;;;;5.72;4.05;;;19.70;45.90;;;;;;5017359;28;20663;-77
2023/04/08 08:26:50;;;;;;;6.25;3.90;;;19.70;46.10;;;;;;5015743;28;20193;-77
2023/04/08 08:29:17;;;;;;;5.63;3.38;;;19.70;45.70;;;;;;5016044;28;20201;-77
2023/04/08 08:31:44;;;;;;;8.70;4.75;;;19.80;45.90;;;;;;5000197;28;20224;-77
2023/04/08 08:34:11;;;;;;;5.00;3.88;;;19.80;45.70;;;;;;5016107;28;20232;-78
2023/04/08 08:36:40;;;;;;;4.57;3.95;;;19.80;46.00;;;;;;5015846;28;20294;-77
2023/04/08 08:39:07;;;;;;;4.70;3.83;;;19.80;46.10;;;;;;5015627;28;20326;-77
2023/04/08 08:41:35;;;;;;;4.57;3.70;;;19.80;46.10;;;;;;5015372;28;20211;-77
2023/04/08 08:44:03;;;;;;;4.20;3.30;;;19.90;46.10;;;;;;5015960;28;20267;-77
2023/04/08 08:46:30;;;;;;;4.22;3.80;;;20.00;46.00;;;;;;5015630;28;20205;-77
2023/04/08 08:48:57;;;;;;;5.47;3.45;;;20.00;45.80;;;;;;5015390;28;20255;-78
2023/04/08 08:51:25;;;;;;;4.90;3.58;;;20.10;45.80;;;;;;5015213;28;20200;-78
2023/04/08 08:53:53;;;;;;;5.53;4.18;;;20.20;45.50;;;;;;5015092;28;20232;-78
2023/04/08 08:56:21;;;;;;;4.55;3.90;;;20.30;45.30;;;;;;5014922;28;20197;-78
2023/04/08 08:58:49;;;;;;;4.47;3.53;;;20.40;45.00;;;;;;5015865;28;20242;-77
2023/04/08 09:01:36;;;;;;;6.97;4.47;;;20.40;45.00;;;;;;5015294;28;20197;-77
2023/04/08 09:04:15;;;;;;;4.18;3.78;;;20.40;44.90;;;;;;5015605;28;20221;-77
2023/04/08 09:06:42;;;;;;;5.40;4.57;;;20.50;44.80;;;;;;5015841;28;20663;-77
2023/04/08 09:09:11;;;;;;;4.85;4.28;;;20.50;44.70;;;;;;5015840;28;20201;-76
2023/04/08 09:11:39;;;;;;;6.55;4.28;;;20.60;44.60;;;;;;5015518;28;20219;-76
2023/04/08 09:14:16;;;;;;;4.85;3.72;;;20.60;44.60;;;;;;5015529;28;20221;-76
2023/04/08 09:16:44;;;;;;;4.22;3.83;;;20.60;44.50;;;;;;5015181;28;20200;-76
2023/04/08 09:19:11;;;;;;;5.35;4.80;;;20.60;44.20;;;;;;5016660;28;20239;-76
2023/04/08 09:21:40;;;;;;;4.75;3.97;;;20.70;44.10;;;;;;5015219;28;20283;-75
2023/04/08 09:24:07;;;;;;;4.40;4.00;;;20.70;44.10;;;;;;5016523;28;20209;-75
2023/04/08 09:26:36;;;;;;;4.82;4.00;;;20.70;43.70;;;;;;4998766;28;20192;-75
2023/04/08 09:29:04;;;;;;;5.22;4.30;;;20.70;44.00;;;;;;5014705;28;20295;-75
2023/04/08 09:31:32;;;;;;;4.65;4.15;;;20.80;43.90;;;;;;5015183;28;20268;-74
2023/04/08 09:34:01;;;;;;;4.10;3.47;;;20.80;43.70;;;;;;4998228;28;20228;-75
2023/04/08 09:36:28;;;;;;;5.63;3.70;;;20.90;43.90;;;;;;5014566;28;20205;-75
2023/04/08 09:38:55;;;;;;;5.45;3.50;;;20.90;44.00;;;;;;5013705;28;20196;-77
2023/04/08 09:41:23;;;;;;;5.57;3.95;;;21.00;44.20;;;;;;5013693;28;20201;-76
2023/04/08 09:43:53;;;;;;;4.15;3.83;;;21.00;44.10;;;;;;5013406;28;20255;-77
2023/04/08 09:46:25;;;;;;;4.85;4.32;;;21.20;43.90;;;;;;5013669;28;20189;-77
2023/04/08 09:48:58;;;;;;;5.53;4.60;;;21.20;43.90;;;;;;5013722;28;20203;-78
2023/04/08 09:51:25;;;;;;;6.22;4.00;;;21.20;43.20;;;;;;5013874;28;20224;-77
2023/04/08 09:53:56;;;;;;;5.80;5.20;;;21.30;43.40;;;;;;5013650;28;20224;-77
2023/04/08 09:56:23;;;;;;;6.20;5.60;;;21.30;44.10;;;;;;5015148;28;20654;-78
2023/04/08 09:58:57;;;;;;;5.80;4.53;;;21.30;43.30;;;;;;5013603;28;20208;-76
2023/04/08 10:01:27;;;;;;;5.22;4.72;;;21.40;43.30;;;;;;5013567;28;20196;-77
2023/04/08 10:03:55;;;;;;;4.60;3.63;;;21.50;43.00;;;;;;5013233;28;20213;-77
2023/04/08 10:06:22;;;;;;;7.25;4.47;;;21.50;42.90;;;;;;5013496;28;20236;-77
2023/04/08 10:08:50;;;;;;;4.75;3.95;;;21.50;42.80;;;;;;5013174;28;20223;-77
2023/04/08 10:11:17;;;;;;;3.95;3.58;;;21.50;42.80;;;;;;5014090;28;20201;-78
2023/04/08 10:13:44;;;;;;;4.30;3.92;;;21.50;42.80;;;;;;5013280;28;20575;-78
2023/04/08 10:16:24;;;;;;;4.10;3.70;;;21.50;42.60;;;;;;4997124;28;20236;-78
2023/04/08 10:18:54;;;;;;;4.30;3.90;;;21.40;42.60;;;;;;4998719;28;20274;-78
2023/04/08 10:21:42;;;;;;;4.68;4.20;;;21.40;42.40;;;;;;4997194;28;20204;-78
2023/04/08 10:24:10;;;;;;;4.55;4.15;;;21.40;42.40;;;;;;5013879;28;20217;-78
2023/04/08 10:26:40;;;;;;;4.40;4.00;;;21.40;42.30;;;;;;5012768;28;20664;-78
2023/04/08 10:29:30;;;;;;;5.35;4.10;;;21.40;42.20;;;;;;5014290;28;20189;-78
2023/04/08 10:31:58;;;;;;;4.20;2.75;;;21.30;42.00;;;;;;5013298;28;20210;-78
2023/04/08 10:34:26;;;;;;;4.45;4.05;;;21.30;42.30;;;;;;5013113;28;20236;-78
2023/04/08 10:36:55;;;;;;;5.85;5.25;;;21.30;42.30;;;;;;5013054;28;20200;-76
2023/04/08 10:39:23;;;;;;;4.78;3.78;;;21.20;42.10;;;;;;5013223;28;20209;-78
2023/04/08 10:41:50;;;;;;;4.43;4.03;;;21.20;42.20;;;;;;4997095;28;20243;-78
2023/04/08 10:44:17;;;;;;;3.70;3.40;;;21.20;42.00;;;;;;5013600;28;20223;-78
2023/04/08 10:46:45;;;;;;;5.05;4.13;;;21.20;42.30;;;;;;5013330;28;20267;-78
2023/04/08 10:49:13;;;;;;;4.90;4.38;;;21.20;42.60;;;;;;5013907;28;20200;-78
2023/04/08 10:51:41;;;;;;;4.22;3.65;;;21.20;42.10;;;;;;5020044;28;20205;-79
2023/04/08 10:54:09;;;;;;;4.15;3.75;;;21.20;42.10;;;;;;5017154;28;20286;-79
2023/04/08 10:56:43;;;;;;;4.22;3.83;;;21.10;42.00;;;;;;5013916;28;20197;-79
2023/04/08 10:59:10;;;;;;;4.95;4.10;;;21.20;42.20;;;;;;5013095;28;20201;-79
2023/04/08 11:01:39;;;;;;;4.05;3.65;;;21.20;42.10;;;;;;5013165;28;20192;-79
2023/04/08 11:04:14;;;;;;;4.30;3.88;;;21.10;42.10;;;;;;5013252;28;20271;-79
2023/04/08 11:06:42;;;;;;;3.88;3.53;;;21.10;42.10;;;;;;5013488;28;20535;-79
2023/04/08 11:09:10;;;;;;;3.97;3.38;;;21.00;41.50;;;;;;5013432;28;20221;-79
2023/04/08 11:11:37;;;;;;;4.82;4.28;;;21.00;41.40;;;;;;5012875;28;20197;-79
2023/04/08 11:14:04;;;;;;;4.20;3.78;;;21.00;41.60;;;;;;5012978;28;20225;-78
2023/04/08 11:16:31;;;;;;;3.90;3.50;;;21.00;41.40;;;;;;5013167;28;20291;-78
2023/04/08 11:18:58;;;;;;;3.58;3.28;;;21.00;41.20;;;;;;5012796;28;20668;-78
2023/04/08 11:21:28;;;;;;;4.18;3.75;;;21.00;42.00;;;;;;5012668;28;20251;-78
2023/04/08 11:23:55;;;;;;;4.43;4.03;;;20.90;41.30;;;;;;5012428;28;20216;-79
2023/04/08 11:26:22;;;;;;;4.40;4.00;;;20.90;41.40;;;;;;5012867;28;20201;-79
2023/04/08 11:28:51;;;;;;;4.03;3.63;;;21.00;41.40;;;;;;5012454;28;20192;-79
2023/04/08 11:31:18;;;;;;;4.28;3.90;;;21.00;41.10;;;;;;4997053;28;20573;-79
2023/04/08 11:33:47;;;;;;;3.80;3.50;;;20.90;41.20;;;;;;5013106;28;20671;-79
2023/04/08 11:36:14;;;;;;;4.00;3.60;;;20.90;41.00;;;;;;5013000;28;20197;-79
2023/04/08 11:38:43;;;;;;;4.50;3.42;;;20.90;41.20;;;;;;5013544;28;20659;-78
2023/04/08 11:41:10;;;;;;;4.05;3.75;;;20.90;40.90;;;;;;5016411;28;20197;-79
2023/04/08 11:43:38;;;;;;;3.42;2.75;;;20.90;40.80;;;;;;5016331;28;20267;-79
2023/04/08 11:46:11;;;;;;;3.92;3.63;;;21.00;41.20;;;;;;5016162;28;20209;-79
2023/04/08 11:48:39;;;;;;;3.83;3.53;;;21.00;40.70;;;;;;5016038;28;20249;-79
2023/04/08 11:51:08;;;;;;;4.07;3.78;;;21.00;40.80;;;;;;5016594;28;20196;-78
2023/04/08 11:53:36;;;;;;;4.20;3.90;;;20.90;40.80;;;;;;5016009;28;20594;-78
2023/04/08 11:56:18;;;;;;;3.92;3.50;;;20.90;40.20;;;;;;5015895;28;20236;-77
2023/04/08 11:58:45;;;;;;;3.80;3.42;;;21.00;40.70;;;;;;5017110;28;20188;-78
2023/04/08 12:01:12;;;;;;;3.45;3.15;;;20.90;41.20;;;;;;5016246;28;20205;-78
2023/04/08 12:03:40;;;;;;;4.22;3.83;;;20.90;41.40;;;;;;5016195;28;20216;-77
2023/04/08 12:06:08;;;;;;;3.78;3.47;;;20.90;41.10;;;;;;5016235;28;20212;-78
2023/04/08 12:08:35;;;;;;;4.88;4.38;;;20.90;41.20;;;;;;5015857;28;20205;-77
2023/04/08 12:11:03;;;;;;;4.28;3.88;;;20.90;40.50;;;;;;5016201;28;20211;-78
2023/04/08 12:13:31;;;;;;;4.38;4.03;;;20.90;41.20;;;;;;5016048;28;20271;-78
2023/04/08 12:15:58;;;;;;;4.07;3.70;;;20.90;41.10;;;;;;5016492;28;20212;-78
2023/04/08 12:18:25;;;;;;;4.30;3.90;;;20.90;40.80;;;;;;5016317;28;20215;-78
2023/04/08 12:20:53;;;;;;;5.03;4.57;;;20.80;40.90;;;;;;5001090;28;20284;-78
2023/04/08 12:23:21;;;;;;;5.28;4.15;;;20.80;40.80;;;;;;5016184;28;20767;-78
2023/04/08 12:25:47;;;;;;;4.78;4.28;;;20.90;40.90;;;;;;5015963;28;20233;-78
2023/04/08 12:28:15;;;;;;;4.88;3.88;;;20.80;40.60;;;;;;5015601;28;20193;-79
2023/04/08 12:30:43;;;;;;;4.30;3.90;;;20.90;40.60;;;;;;5015443;28;20212;-78
2023/04/08 12:33:10;;;;;;;4.43;4.05;;;20.80;40.80;;;;;;5015486;28;20221;-78
2023/04/08 12:35:38;;;;;;;4.93;4.38;;;20.70;40.90;;;;;;5016962;28;20320;-78
2023/04/08 12:38:05;;;;;;;4.22;3.80;;;20.70;41.10;;;;;;5015492;28;20631;-78
2023/04/08 12:40:32;;;;;;;4.10;3.70;;;20.70;41.00;;;;;;5015111;28;20231;-78
2023/04/08 12:42:59;;;;;;;4.97;3.90;;;20.60;41.20;;;;;;5015323;28;20231;-78
2023/04/08 12:45:26;;;;;;;4.68;4.28;;;20.70;41.20;;;;;;5015035;28;20201;-78
2023/04/08 12:47:54;;;;;;;4.55;4.07;;;20.70;39.90;;;;;;5015300;28;20203;-77
2023/04/08 12:50:22;;;;;;;4.78;4.38;;;20.70;40.40;;;;;;5016561;28;20192;-76
2023/04/08 12:52:49;;;;;;;4.65;4.25;;;20.80;40.80;;;;;;5014787;28;20244;-75